createdAt,value
2023-03-22T00:01:28.766Z,100.10
2023-03-22T00:03:57.000Z,100.37
2023-03-22T00:06:25.635Z,101.13
2023-03-22T00:08:55.130Z,98.17
2023-03-22T00:11:25.971Z,98.43
2023-03-22T00:13:55.016Z,96.30
2023-03-22T00:16:23.593Z,98.33
2023-03-22T00:18:51.830Z,99.50
2023-03-22T00:21:20.027Z,98.60
2023-03-22T00:23:48.169Z,101.17
2023-03-22T00:26:16.446Z,98.23
2023-03-22T00:28:46.677Z,102.60
2023-03-22T00:31:15.984Z,102.50
2023-03-22T00:33:44.168Z,103.37
2023-03-22T00:36:13.886Z,102.27
2023-03-22T00:38:43.968Z,101.97
2023-03-22T00:41:14.083Z,101.23
2023-03-22T00:43:42.541Z,102.73
2023-03-22T00:46:13.518Z,104.00
2023-03-22T00:48:42.035Z,102.40
2023-03-22T00:51:12.775Z,105.53
2023-03-22T00:53:43.522Z,104.00
2023-03-22T00:56:15.890Z,102.83
2023-03-22T00:58:57.060Z,105.70
2023-03-22T01:01:26.922Z,104.30
2023-03-22T01:03:56.017Z,104.37
2023-03-22T01:06:24.132Z,102.73
2023-03-22T01:08:55.257Z,106.47
2023-03-22T01:11:23.497Z,105.53
2023-03-22T01:13:57.663Z,103.47
2023-03-22T01:16:27.760Z,103.90
2023-03-22T01:18:55.897Z,108.33
2023-03-22T01:21:24.032Z,109.27
2023-03-22T01:23:52.146Z,108.10
2023-03-22T01:26:20.287Z,108.40
2023-03-22T01:28:48.359Z,111.67
2023-03-22T01:31:16.513Z,109.47
2023-03-22T01:33:46.125Z,113.90
2023-03-22T01:36:14.244Z,112.87
2023-03-22T01:38:42.371Z,115.77
2023-03-22T01:41:10.553Z,113.67
2023-03-22T01:43:41.901Z,115.17
2023-03-22T01:46:10.321Z,116.83
2023-03-22T01:48:46.271Z,118.00
2023-03-22T01:51:19.241Z,113.60
2023-03-22T01:54:25.722Z,117.00
2023-03-22T01:56:54.175Z,119.23
2023-03-22T01:59:32.676Z,119.40
2023-03-22T02:02:19.244Z,118.07
2023-03-22T02:04:58.193Z,116.10
2023-03-22T02:07:31.918Z,115.57
2023-03-22T02:10:02.474Z,121.27
2023-03-22T02:12:53.596Z,121.93
2023-03-22T02:15:42.876Z,125.23
2023-03-22T02:18:44.958Z,125.00
2023-03-22T02:21:46.020Z,122.13
2023-03-22T02:24:48.301Z,135.93
2023-03-22T02:27:48.065Z,117.00
2023-03-22T02:30:45.912Z,117.30
2023-03-22T02:33:41.559Z,119.47
2023-03-22T02:36:31.016Z,122.07
2023-03-22T02:39:15.558Z,123.87
2023-03-22T02:42:05.000Z,123.33
2023-03-22T02:44:42.246Z,122.90
2023-03-22T02:47:22.433Z,121.33
2023-03-22T02:49:57.500Z,122.83
2023-03-22T02:52:31.900Z,118.00
2023-03-22T02:55:08.985Z,124.07
2023-03-22T02:57:42.006Z,127.80
2023-03-22T03:00:14.240Z,125.57
2023-03-22T03:02:45.430Z,124.17
2023-03-22T03:05:16.234Z,140.90
2023-03-22T03:07:47.802Z,109.03
2023-03-22T03:10:19.728Z,109.03
2023-03-22T03:12:48.050Z,111.13
2023-03-22T03:15:18.635Z,123.53
2023-03-22T03:17:58.685Z,117.67
2023-03-22T03:20:39.007Z,109.87
2023-03-22T03:23:17.787Z,119.90
2023-03-22T03:25:59.070Z,122.50
2023-03-22T03:28:38.470Z,123.73
2023-03-22T03:31:19.797Z,128.33
2023-03-22T03:33:56.288Z,161.90
2023-03-22T03:36:27.420Z,109.90
2023-03-22T03:38:58.010Z,129.90
2023-03-22T03:41:31.334Z,132.00
2023-03-22T03:44:00.654Z,134.03
2023-03-22T03:46:29.529Z,145.80
2023-03-22T03:48:59.366Z,162.43
2023-03-22T03:51:28.761Z,128.70
2023-03-22T03:53:56.867Z,139.67
2023-03-22T03:56:25.184Z,163.80
2023-03-22T03:58:55.769Z,154.20
2023-03-22T04:01:24.251Z,131.00
2023-03-22T04:04:15.342Z,157.97
2023-03-22T04:06:56.838Z,135.27
2023-03-22T04:09:27.512Z,132.37
2023-03-22T04:12:00.823Z,159.17
2023-03-22T04:14:30.473Z,157.17
2023-03-22T04:17:02.596Z,188.30
2023-03-22T04:19:32.623Z,179.93
2023-03-22T04:22:01.183Z,175.37
2023-03-22T04:24:29.446Z,120.87
2023-03-22T04:26:57.572Z,157.43
2023-03-22T04:29:32.360Z,118.83
2023-03-22T04:32:16.622Z,128.70
2023-03-22T04:34:44.934Z,116.67
2023-03-22T04:37:15.657Z,183.90
2023-03-22T04:39:50.617Z,128.40
2023-03-22T04:42:32.437Z,123.20
2023-03-22T04:45:29.318Z,123.47
2023-03-22T04:48:01.874Z,109.27
2023-03-22T04:50:32.365Z,113.43
2023-03-22T04:53:04.085Z,114.53
2023-03-22T04:55:34.224Z,109.80
2023-03-22T04:58:03.421Z,114.03
2023-03-22T05:00:32.914Z,109.87
2023-03-22T05:03:04.172Z,106.83
2023-03-22T05:05:41.352Z,102.87
2023-03-22T05:08:09.725Z,107.93
2023-03-22T05:10:41.414Z,107.20
2023-03-22T05:13:10.055Z,102.63
2023-03-22T05:15:44.418Z,101.43
2023-03-22T05:18:15.547Z,94.83
2023-03-22T05:20:45.666Z,98.03
2023-03-22T05:23:19.502Z,109.70
2023-03-22T05:25:52.333Z,106.00
2023-03-22T05:28:22.513Z,122.77
2023-03-22T05:31:15.584Z,105.63
2023-03-22T05:33:50.531Z,126.20
2023-03-22T05:36:23.001Z,100.83
2023-03-22T05:39:10.879Z,97.47
2023-03-22T05:41:39.161Z,137.33
2023-03-22T05:44:07.529Z,97.77
2023-03-22T05:46:39.791Z,96.00
2023-03-22T05:49:31.148Z,99.90
2023-03-22T05:51:59.359Z,103.63
2023-03-22T05:54:38.435Z,100.30
2023-03-22T05:57:07.427Z,125.27
2023-03-22T05:59:35.517Z,99.13
2023-03-22T06:02:05.711Z,92.63
2023-03-22T06:04:33.793Z,111.60
2023-03-22T06:07:06.435Z,83.33
2023-03-22T06:09:54.523Z,83.07
2023-03-22T06:12:27.223Z,91.17
2023-03-22T06:15:13.041Z,78.13
2023-03-22T06:17:58.822Z,76.33
2023-03-22T06:20:29.699Z,73.87
2023-03-22T06:23:03.416Z,74.00
2023-03-22T06:25:31.624Z,80.60
2023-03-22T06:28:00.664Z,69.70
2023-03-22T06:30:30.496Z,65.57
2023-03-22T06:33:14.727Z,67.70
2023-03-22T06:35:46.351Z,66.87
2023-03-22T06:38:20.841Z,64.47
2023-03-22T06:40:49.085Z,66.33
2023-03-22T06:43:17.300Z,64.00
2023-03-22T06:45:48.806Z,64.73
2023-03-22T06:48:23.733Z,64.70
2023-03-22T06:51:06.503Z,67.73
2023-03-22T06:53:36.512Z,69.17
2023-03-22T06:56:06.083Z,71.00
2023-03-22T06:58:45.049Z,64.90
2023-03-22T07:01:13.136Z,66.40
2023-03-22T07:03:42.817Z,63.37
2023-03-22T07:06:14.912Z,64.73
2023-03-22T07:08:46.952Z,63.90
2023-03-22T07:11:19.060Z,63.07
2023-03-22T07:13:51.809Z,62.60
2023-03-22T07:16:22.920Z,68.83
2023-03-22T07:18:56.013Z,72.07
2023-03-22T07:21:24.692Z,73.03
2023-03-22T07:23:58.289Z,70.17
2023-03-22T07:26:30.632Z,71.60
2023-03-22T07:29:00.107Z,69.03
2023-03-22T07:31:31.687Z,71.20
2023-03-22T07:34:06.948Z,67.90
2023-03-22T07:36:58.061Z,67.47
2023-03-22T07:39:28.974Z,62.80
2023-03-22T07:41:57.550Z,58.90
2023-03-22T07:44:25.629Z,57.77
2023-03-22T07:47:12.758Z,58.63
2023-03-22T07:49:49.658Z,58.70
2023-03-22T07:52:21.875Z,65.80
2023-03-22T07:54:50.269Z,62.50
2023-03-22T07:57:18.814Z,62.60
2023-03-22T07:59:53.075Z,59.67
2023-03-22T08:02:21.440Z,59.57
2023-03-22T08:04:56.507Z,55.77
2023-03-22T08:07:42.410Z,58.43
2023-03-22T08:10:12.820Z,57.57
2023-03-22T08:12:41.379Z,55.33
2023-03-22T08:15:16.687Z,55.17
2023-03-22T08:17:45.477Z,54.87
2023-03-22T08:20:21.197Z,56.80
2023-03-22T08:22:55.553Z,56.00
2023-03-22T08:25:49.719Z,55.80
2023-03-22T08:28:17.895Z,57.53
2023-03-22T08:30:48.183Z,56.67
2023-03-22T08:33:17.149Z,55.60
2023-03-22T08:35:48.107Z,54.67
2023-03-22T08:38:16.257Z,54.97
2023-03-22T08:40:48.715Z,51.80
2023-03-22T08:43:20.764Z,51.73
2023-03-22T08:45:49.026Z,47.23
2023-03-22T08:48:20.842Z,45.67
2023-03-22T08:51:06.578Z,41.23
2023-03-22T08:53:49.740Z,39.87
2023-03-22T08:56:41.892Z,39.37
2023-03-22T08:59:20.504Z,35.10
2023-03-22T09:01:59.055Z,33.37
2023-03-22T09:04:27.442Z,32.53
2023-03-22T09:06:57.614Z,33.50
2023-03-22T09:09:25.744Z,31.70
2023-03-22T09:11:56.312Z,29.83
2023-03-22T09:14:24.802Z,27.23
2023-03-22T09:16:54.459Z,27.17
2023-03-22T09:19:22.707Z,25.35
2023-03-22T09:21:51.089Z,26.38
2023-03-22T09:24:31.536Z,24.25
2023-03-22T09:27:03.432Z,23.17
2023-03-22T09:29:31.931Z,22.33
2023-03-22T09:32:03.477Z,21.92
2023-03-22T09:34:35.004Z,24.25
2023-03-22T09:37:04.941Z,23.42
2023-03-22T09:39:44.838Z,19.88
2023-03-22T09:42:25.878Z,21.60
2023-03-22T09:44:56.157Z,26.30
2023-03-22T09:47:44.164Z,20.20
2023-03-22T09:50:16.512Z,20.88
2023-03-22T09:52:45.160Z,26.73
2023-03-22T09:55:20.744Z,30.05
2023-03-22T09:57:56.283Z,21.25
2023-03-22T10:00:34.599Z,19.13
2023-03-22T10:03:14.007Z,19.20
2023-03-22T10:05:48.289Z,20.23
2023-03-22T10:08:31.171Z,14.32
2023-03-22T10:11:01.540Z,11.10
2023-03-22T10:13:37.750Z,12.50
2023-03-22T10:16:11.772Z,13.40
2023-03-22T10:18:43.827Z,13.40
2023-03-22T10:21:14.484Z,12.68
2023-03-22T10:23:45.890Z,13.02
2023-03-22T10:26:23.980Z,13.95
2023-03-22T10:29:03.506Z,12.57
2023-03-22T10:31:32.859Z,12.68
2023-03-22T10:34:08.366Z,13.88
2023-03-22T10:36:42.476Z,13.95
2023-03-22T10:39:17.304Z,13.73
2023-03-22T10:41:48.633Z,12.18
2023-03-22T10:44:20.534Z,12.63
2023-03-22T10:46:52.054Z,12.73
2023-03-22T10:49:26.180Z,13.55
2023-03-22T10:51:59.910Z,13.98
2023-03-22T10:54:28.161Z,13.48
2023-03-22T10:56:57.637Z,14.50
2023-03-22T10:59:48.392Z,13.57
2023-03-22T11:02:22.251Z,14.07
2023-03-22T11:04:52.646Z,14.02
2023-03-22T11:07:39.423Z,12.13
2023-03-22T11:10:21.856Z,9.60
2023-03-22T11:12:54.418Z,8.98
2023-03-22T11:15:29.948Z,8.95
2023-03-22T11:18:06.557Z,9.73
2023-03-22T11:20:36.542Z,8.82
2023-03-22T11:23:07.027Z,8.38
2023-03-22T11:25:37.668Z,9.65
2023-03-22T11:28:16.637Z,8.80
2023-03-22T11:31:00.462Z,9.02
2023-03-22T11:33:28.858Z,8.73
2023-03-22T11:35:58.227Z,9.50
2023-03-22T11:38:30.622Z,10.20
2023-03-22T11:41:02.687Z,9.23
2023-03-22T11:43:37.005Z,10.25
2023-03-22T11:46:06.394Z,9.52
2023-03-22T11:48:36.702Z,10.25
2023-03-22T11:51:09.771Z,10.48
2023-03-22T11:53:40.931Z,11.63
2023-03-22T11:56:12.086Z,11.02
2023-03-22T11:58:56.387Z,10.35
2023-03-22T12:01:34.532Z,10.05
2023-03-22T12:04:06.440Z,10.02
2023-03-22T12:06:39.226Z,9.68
2023-03-22T12:09:22.898Z,9.98
2023-03-22T12:11:54.313Z,10.50
2023-03-22T12:14:29.273Z,10.75
2023-03-22T12:16:59.748Z,10.98
2023-03-22T12:19:43.546Z,10.60
2023-03-22T12:22:14.393Z,10.52
2023-03-22T12:24:43.273Z,10.20
2023-03-22T12:27:18.680Z,9.30
2023-03-22T12:29:54.803Z,10.68
2023-03-22T12:32:27.667Z,10.13
2023-03-22T12:35:16.044Z,10.15
2023-03-22T12:37:49.697Z,9.95
2023-03-22T12:40:24.451Z,8.77
2023-03-22T12:43:02.294Z,9.05
2023-03-22T12:45:37.165Z,9.20
2023-03-22T12:48:11.440Z,8.10
2023-03-22T12:50:44.479Z,8.65
2023-03-22T12:53:16.475Z,9.32
2023-03-22T12:55:46.241Z,9.32
2023-03-22T12:58:18.178Z,9.40
2023-03-22T13:00:51.004Z,8.57
2023-03-22T13:03:28.975Z,9.23
2023-03-22T13:06:07.717Z,9.13
2023-03-22T13:09:13.215Z,9.23
2023-03-22T13:11:41.338Z,8.40
2023-03-22T13:14:12.986Z,8.77
2023-03-22T13:16:52.596Z,7.78
2023-03-22T13:19:38.037Z,8.10
2023-03-22T13:22:21.130Z,7.90
2023-03-22T13:25:29.717Z,8.20
2023-03-22T13:28:00.091Z,7.30
2023-03-22T13:30:33.357Z,7.40
2023-03-22T13:33:14.321Z,7.43
2023-03-22T13:35:46.580Z,6.50
2023-03-22T13:38:22.308Z,7.10
2023-03-22T13:41:00.789Z,5.93
2023-03-22T13:43:32.757Z,6.57
2023-03-22T13:46:29.435Z,6.60
2023-03-22T13:49:26.534Z,5.93
2023-03-22T13:51:56.916Z,5.20
2023-03-22T13:54:28.732Z,5.10
2023-03-22T13:57:00.909Z,5.38
2023-03-22T13:59:33.890Z,6.63
2023-03-22T14:02:05.921Z,6.10
2023-03-22T14:04:42.686Z,5.88
2023-03-22T14:07:24.198Z,6.90
2023-03-22T14:09:55.768Z,6.38
2023-03-22T14:12:29.742Z,5.82
2023-03-22T14:15:02.601Z,6.03
2023-03-22T14:17:36.276Z,5.88
2023-03-22T14:20:10.701Z,6.00
